Terminal Aerodrome Forecast
Issued by NWS Louisville, KY

Home | Current Version | Previous Version | Text Only | Print | Product List | Glossary On
Versions: 1 2 3 4 5 6 7 8 9 10 11 12 13 14 15 16 17 18
000
FTUS43 KLMK 211000 AAB
TAFLEX
TAF AMD
KLEX 211010Z 2110/2206 33006KT P6SM SCT012 BKN025
      TEMPO 2110/2114 BKN012
     FM211800 31010KT P6SM BKN035
     FM220000 VRB03KT P6SM SCT035=

USA.gov is the U.S. government's official web portal to all federal, state and local government web resources and services.